sensor_id;sensor_type;location;lat;lon;timestamp;pressure;altitude;pressure_sealevel;temperature;humidity
10342;BME280;5216;54.602;18.356;2023-12-29T00:00:42;100502.63;;;10.87;59.42
10342;BME280;5216;54.602;18.356;2023-12-29T00:03:08;100512.19;;;10.89;59.25
10342;BME280;5216;54.602;18.356;2023-12-29T00:05:35;100507.69;;;10.90;59.49
10342;BME280;5216;54.602;18.356;2023-12-29T00:08:03;100483.34;;;10.83;58.85
10342;BME280;5216;54.602;18.356;2023-12-29T00:10:30;100519.63;;;10.86;58.97
10342;BME280;5216;54.602;18.356;2023-12-29T00:12:56;100503.88;;;10.83;59.13
10342;BME280;5216;54.602;18.356;2023-12-29T00:15:23;100513.59;;;10.84;58.89
10342;BME280;5216;54.602;18.356;2023-12-29T00:17:50;100500.50;;;10.81;59.34
10342;BME280;5216;54.602;18.356;2023-12-29T00:20:19;100494.47;;;10.79;59.17
10342;BME280;5216;54.602;18.356;2023-12-29T00:23:03;100485.75;;;10.77;59.29
10342;BME280;5216;54.602;18.356;2023-12-29T00:25:30;100486.00;;;10.74;59.01
10342;BME280;5216;54.602;18.356;2023-12-29T00:27:57;100477.03;;;10.75;59.45
10342;BME280;5216;54.602;18.356;2023-12-29T00:30:24;100478.84;;;10.74;58.74
10342;BME280;5216;54.602;18.356;2023-12-29T00:33:04;100480.66;;;10.74;58.73
10342;BME280;5216;54.602;18.356;2023-12-29T00:35:31;100490.38;;;10.75;58.66
10342;BME280;5216;54.602;18.356;2023-12-29T00:37:58;100484.19;;;10.74;59.65
10342;BME280;5216;54.602;18.356;2023-12-29T00:40:25;100488.84;;;10.72;58.79
10342;BME280;5216;54.602;18.356;2023-12-29T00:42:51;100484.34;;;10.73;59.03
10342;BME280;5216;54.602;18.356;2023-12-29T00:45:18;100491.66;;;10.71;59.48
10342;BME280;5216;54.602;18.356;2023-12-29T00:47:45;100486.56;;;10.68;59.23
10342;BME280;5216;54.602;18.356;2023-12-29T00:50:11;100466.47;;;10.64;59.17
10342;BME280;5216;54.602;18.356;2023-12-29T00:52:38;100473.38;;;10.66;59.55
10342;BME280;5216;54.602;18.356;2023-12-29T00:55:05;100475.47;;;10.63;59.51
10342;BME280;5216;54.602;18.356;2023-12-29T00:57:32;100466.75;;;10.61;59.40
10342;BME280;5216;54.602;18.356;2023-12-29T01:00:00;100480.81;;;10.63;59.42
10342;BME280;5216;54.602;18.356;2023-12-29T01:02:26;100474.78;;;10.61;59.71
10342;BME280;5216;54.602;18.356;2023-12-29T01:04:53;100457.03;;;10.60;59.14
10342;BME280;5216;54.602;18.356;2023-12-29T01:07:20;100458.03;;;10.59;59.29
10342;BME280;5216;54.602;18.356;2023-12-29T01:09:47;100460.72;;;10.59;59.22
10342;BME280;5216;54.602;18.356;2023-12-29T01:12:13;100450.28;;;10.56;59.21
10342;BME280;5216;54.602;18.356;2023-12-29T01:14:41;100450.59;;;10.53;59.60
10342;BME280;5216;54.602;18.356;2023-12-29T01:17:08;100446.50;;;10.49;59.43
10342;BME280;5216;54.602;18.356;2023-12-29T01:19:35;100433.84;;;10.51;59.38
10342;BME280;5216;54.602;18.356;2023-12-29T01:22:01;100428.75;;;10.48;59.54
10342;BME280;5216;54.602;18.356;2023-12-29T01:24:28;100422.47;;;10.49;59.21
10342;BME280;5216;54.602;18.356;2023-12-29T01:27:08;100426.41;;;10.45;59.30
10342;BME280;5216;54.602;18.356;2023-12-29T01:29:34;100419.22;;;10.46;59.61
10342;BME280;5216;54.602;18.356;2023-12-29T01:32:03;100408.97;;;10.41;59.57
10342;BME280;5216;54.602;18.356;2023-12-29T01:34:33;100408.97;;;10.41;59.42
10342;BME280;5216;54.602;18.356;2023-12-29T01:37:02;100403.88;;;10.38;59.47
10342;BME280;5216;54.602;18.356;2023-12-29T01:39:29;100388.13;;;10.35;59.52
10342;BME280;5216;54.602;18.356;2023-12-29T01:41:56;100382.38;;;10.30;59.99
10342;BME280;5216;54.602;18.356;2023-12-29T01:44:23;100371.25;;;10.26;59.67
10342;BME280;5216;54.602;18.356;2023-12-29T01:46:51;100360.28;;;10.19;60.13
10342;BME280;5216;54.602;18.356;2023-12-29T01:49:19;100369.84;;;10.22;60.08
10342;BME280;5216;54.602;18.356;2023-12-29T01:51:50;100364.50;;;10.22;59.87
10342;BME280;5216;54.602;18.356;2023-12-29T01:54:19;100370.97;;;10.19;59.75
10342;BME280;5216;54.602;18.356;2023-12-29T01:56:47;100367.59;;;10.17;60.18
10342;BME280;5216;54.602;18.356;2023-12-29T01:59:16;100370.41;;;10.16;60.18
10342;BME280;5216;54.602;18.356;2023-12-29T02:01:53;100370.41;;;10.16;60.21
10342;BME280;5216;54.602;18.356;2023-12-29T02:04:23;100363.41;;;10.15;60.11
10342;BME280;5216;54.602;18.356;2023-12-29T02:06:51;100347.63;;;10.12;59.86
10342;BME280;5216;54.602;18.356;2023-12-29T02:09:18;100345.97;;;10.11;60.50
10342;BME280;5216;54.602;18.356;2023-12-29T02:11:45;100347.94;;;10.09;59.95
10342;BME280;5216;54.602;18.356;2023-12-29T02:14:14;100336.25;;;10.10;60.10
10342;BME280;5216;54.602;18.356;2023-12-29T02:19:41;100334.16;;;10.04;60.39
10342;BME280;5216;54.602;18.356;2023-12-29T02:22:11;100336.13;;;10.02;60.47
10342;BME280;5216;54.602;18.356;2023-12-29T02:24:38;100348.75;;;10.00;60.44
10342;BME280;5216;54.602;18.356;2023-12-29T02:27:12;100340.63;;;10.01;60.53
10342;BME280;5216;54.602;18.356;2023-12-29T02:29:47;100344.97;;;10.02;60.65
10342;BME280;5216;54.602;18.356;2023-12-29T02:32:18;100340.75;;;10.00;60.51
10342;BME280;5216;54.602;18.356;2023-12-29T02:34:47;100324.88;;;9.98;60.47
10342;BME280;5216;54.602;18.356;2023-12-29T02:37:15;100309.97;;;9.96;60.74
10342;BME280;5216;54.602;18.356;2023-12-29T02:39:42;100301.28;;;9.94;60.68
10342;BME280;5216;54.602;18.356;2023-12-29T02:42:09;100317.59;;;9.91;60.60
10342;BME280;5216;54.602;18.356;2023-12-29T02:44:36;100294.25;;;9.93;60.25
10342;BME280;5216;54.602;18.356;2023-12-29T02:47:03;100296.22;;;9.91;60.54
10342;BME280;5216;54.602;18.356;2023-12-29T02:49:30;100303.94;;;9.94;60.81
10342;BME280;5216;54.602;18.356;2023-12-29T02:51:57;100301.28;;;9.94;60.42
10342;BME280;5216;54.602;18.356;2023-12-29T02:54:24;100301.56;;;9.91;60.75
10342;BME280;5216;54.602;18.356;2023-12-29T02:56:51;100307.00;;;9.90;60.63
10342;BME280;5216;54.602;18.356;2023-12-29T02:59:17;100309.81;;;9.88;60.54
10342;BME280;5216;54.602;18.356;2023-12-29T03:01:44;100315.00;;;9.90;60.76
10342;BME280;5216;54.602;18.356;2023-12-29T03:04:11;100288.44;;;9.88;60.43
10342;BME280;5216;54.602;18.356;2023-12-29T03:06:40;100298.16;;;9.89;60.64
10342;BME280;5216;54.602;18.356;2023-12-29T03:09:08;100289.16;;;9.90;60.59
10342;BME280;5216;54.602;18.356;2023-12-29T03:11:34;100300.13;;;9.87;60.79
10342;BME280;5216;54.602;18.356;2023-12-29T03:14:01;100283.81;;;9.90;60.72
10342;BME280;5216;54.602;18.356;2023-12-29T03:16:28;100290.88;;;9.91;60.64
10342;BME280;5216;54.602;18.356;2023-12-29T03:18:55;100289.16;;;9.90;60.59
10342;BME280;5216;54.602;18.356;2023-12-29T03:21:21;100300.56;;;9.92;60.94
10342;BME280;5216;54.602;18.356;2023-12-29T03:23:48;100293.97;;;9.96;60.70
10342;BME280;5216;54.602;18.356;2023-12-29T03:26:15;100272.34;;;9.99;60.78
10342;BME280;5216;54.602;18.356;2023-12-29T03:28:41;100275.97;;;9.98;60.51
10342;BME280;5216;54.602;18.356;2023-12-29T03:31:08;100268.66;;;10.00;60.56
10342;BME280;5216;54.602;18.356;2023-12-29T03:33:35;100260.97;;;9.97;60.55
10342;BME280;5216;54.602;18.356;2023-12-29T03:36:02;100276.81;;;9.98;59.98
10342;BME280;5216;54.602;18.356;2023-12-29T03:38:29;100241.97;;;10.00;60.37
10342;BME280;5216;54.602;18.356;2023-12-29T03:40:56;100249.97;;;10.00;60.22
10342;BME280;5216;54.602;18.356;2023-12-29T03:43:22;100234.25;;;9.97;60.26
10342;BME280;5216;54.602;18.356;2023-12-29T03:45:49;100237.63;;;9.99;60.26
10342;BME280;5216;54.602;18.356;2023-12-29T03:48:16;100247.03;;;9.93;60.27
10342;BME280;5216;54.602;18.356;2023-12-29T03:50:42;100243.94;;;9.98;60.19
10342;BME280;5216;54.602;18.356;2023-12-29T03:53:09;100234.09;;;9.98;60.51
10342;BME280;5216;54.602;18.356;2023-12-29T03:55:36;100239.59;;;9.97;60.58
10342;BME280;5216;54.602;18.356;2023-12-29T03:58:04;100245.78;;;9.97;60.41
10342;BME280;5216;54.602;18.356;2023-12-29T04:00:31;100232.69;;;9.94;60.01
10342;BME280;5216;54.602;18.356;2023-12-29T04:02:57;100235.22;;;9.96;59.78
10342;BME280;5216;54.602;18.356;2023-12-29T04:05:24;100223.16;;;9.92;60.25
10342;BME280;5216;54.602;18.356;2023-12-29T04:07:51;100221.50;;;9.91;60.29
10342;BME280;5216;54.602;18.356;2023-12-29T04:10:17;100237.50;;;9.91;60.21
10342;BME280;5216;54.602;18.356;2023-12-29T04:12:44;100194.06;;;9.89;60.15
10342;BME280;5216;54.602;18.356;2023-12-29T04:15:11;100198.53;;;9.89;60.40
10342;BME280;5216;54.602;18.356;2023-12-29T04:17:38;100209.06;;;9.90;60.31
10342;BME280;5216;54.602;18.356;2023-12-29T04:20:06;100204.59;;;9.91;60.50
10342;BME280;5216;54.602;18.356;2023-12-29T04:22:32;100193.06;;;9.90;60.45
10342;BME280;5216;54.602;18.356;2023-12-29T04:25:00;100205.16;;;9.94;60.21
10342;BME280;5216;54.602;18.356;2023-12-29T04:27:27;100209.53;;;9.95;60.28
10342;BME280;5216;54.602;18.356;2023-12-29T04:29:54;100188.47;;;9.92;60.63
10342;BME280;5216;54.602;18.356;2023-12-29T04:32:20;100182.16;;;9.93;60.12
10342;BME280;5216;54.602;18.356;2023-12-29T04:34:47;100190.00;;;9.94;60.17
10342;BME280;5216;54.602;18.356;2023-12-29T04:37:14;100181.00;;;9.95;60.25
10342;BME280;5216;54.602;18.356;2023-12-29T04:39:41;100170.59;;;9.92;60.22
10342;BME280;5216;54.602;18.356;2023-12-29T04:42:08;100166.13;;;9.93;60.17
10342;BME280;5216;54.602;18.356;2023-12-29T04:44:34;100175.81;;;9.94;60.25
10342;BME280;5216;54.602;18.356;2023-12-29T04:47:01;100165.13;;;9.94;60.52
10342;BME280;5216;54.602;18.356;2023-12-29T04:49:28;100159.94;;;9.92;60.08
10342;BME280;5216;54.602;18.356;2023-12-29T04:51:54;100185.78;;;9.92;60.26
10342;BME280;5216;54.602;18.356;2023-12-29T04:54:23;100164.44;;;9.92;60.55
10342;BME280;5216;54.602;18.356;2023-12-29T04:56:50;100171.72;;;9.90;60.37
10342;BME280;5216;54.602;18.356;2023-12-29T04:59:17;100170.03;;;9.89;60.40
10342;BME280;5216;54.602;18.356;2023-12-29T05:01:44;100164.97;;;9.86;60.69
10342;BME280;5216;54.602;18.356;2023-12-29T05:04:10;100164.00;;;9.87;60.25
10342;BME280;5216;54.602;18.356;2023-12-29T05:06:37;100170.88;;;9.90;60.74
10342;BME280;5216;54.602;18.356;2023-12-29T05:09:04;100176.34;;;9.88;60.47
10342;BME280;5216;54.602;18.356;2023-12-29T05:11:31;100165.44;;;9.91;60.34
10342;BME280;5216;54.602;18.356;2023-12-29T05:13:58;100148.69;;;9.89;60.46
10342;BME280;5216;54.602;18.356;2023-12-29T05:16:25;100161.16;;;9.89;60.35
10342;BME280;5216;54.602;18.356;2023-12-29T05:18:52;100142.66;;;9.87;60.55
10342;BME280;5216;54.602;18.356;2023-12-29T05:21:19;100156.00;;;9.87;60.28
10342;BME280;5216;54.602;18.356;2023-12-29T05:23:47;100164.69;;;9.89;60.60
10342;BME280;5216;54.602;18.356;2023-12-29T05:26:14;100150.66;;;9.87;60.57
10342;BME280;5216;54.602;18.356;2023-12-29T05:28:41;100159.50;;;9.88;60.74
10342;BME280;5216;54.602;18.356;2023-12-29T05:31:08;100166.38;;;9.90;60.72
10342;BME280;5216;54.602;18.356;2023-12-29T05:33:35;100158.66;;;9.96;60.69
10342;BME280;5216;54.602;18.356;2023-12-29T05:36:06;100148.16;;;9.95;60.40
10342;BME280;5216;54.602;18.356;2023-12-29T05:38:35;100162.19;;;9.97;60.82
10342;BME280;5216;54.602;18.356;2023-12-29T05:41:02;100173.84;;;9.96;60.64
10342;BME280;5216;54.602;18.356;2023-12-29T05:43:31;100174.84;;;9.95;60.74
10342;BME280;5216;54.602;18.356;2023-12-29T05:45:59;100165.56;;;9.99;61.10
10342;BME280;5216;54.602;18.356;2023-12-29T05:48:26;100175.38;;;9.98;61.54
10342;BME280;5216;54.602;18.356;2023-12-29T05:50:53;100163.84;;;9.98;61.85
10342;BME280;5216;54.602;18.356;2023-12-29T05:53:20;100160.78;;;9.93;62.30
10342;BME280;5216;54.602;18.356;2023-12-29T05:55:47;100164.56;;;9.91;62.87
10342;BME280;5216;54.602;18.356;2023-12-29T05:58:14;100162.75;;;9.91;63.09
10342;BME280;5216;54.602;18.356;2023-12-29T06:00:41;100160.63;;;9.85;63.26
10342;BME280;5216;54.602;18.356;2023-12-29T06:03:08;100161.59;;;9.84;63.63
10342;BME280;5216;54.602;18.356;2023-12-29T06:05:35;100138.56;;;9.83;63.77
10342;BME280;5216;54.602;18.356;2023-12-29T06:08:02;100135.88;;;9.83;64.08
10342;BME280;5216;54.602;18.356;2023-12-29T06:10:28;100120.31;;;9.79;63.91
10342;BME280;5216;54.602;18.356;2023-12-29T06:12:55;100136.63;;;9.76;64.06
10342;BME280;5216;54.602;18.356;2023-12-29T06:15:22;100119.47;;;9.78;63.87
10342;BME280;5216;54.602;18.356;2023-12-29T06:17:49;100124.81;;;9.78;64.05
10342;BME280;5216;54.602;18.356;2023-12-29T06:20:16;100123.13;;;9.77;64.68
10342;BME280;5216;54.602;18.356;2023-12-29T06:22:43;100129.47;;;9.76;64.17
10342;BME280;5216;54.602;18.356;2023-12-29T06:25:11;100112.75;;;9.74;63.99
10342;BME280;5216;54.602;18.356;2023-12-29T06:27:38;100109.09;;;9.75;64.00
10342;BME280;5216;54.602;18.356;2023-12-29T06:30:08;100100.94;;;9.77;63.80
10342;BME280;5216;54.602;18.356;2023-12-29T06:32:34;100102.34;;;9.71;63.81
10342;BME280;5216;54.602;18.356;2023-12-29T06:35:01;100111.34;;;9.70;63.68
10342;BME280;5216;54.602;18.356;2023-12-29T06:37:29;100123.69;;;9.71;63.91
10342;BME280;5216;54.602;18.356;2023-12-29T06:39:56;100080.88;;;9.73;63.73
10342;BME280;5216;54.602;18.356;2023-12-29T06:42:22;100105.72;;;9.73;63.79
10342;BME280;5216;54.602;18.356;2023-12-29T06:44:49;100122.59;;;9.74;63.75
10342;BME280;5216;54.602;18.356;2023-12-29T06:47:16;100104.75;;;9.74;63.26
10342;BME280;5216;54.602;18.356;2023-12-29T06:49:43;100114.41;;;9.75;63.36
10342;BME280;5216;54.602;18.356;2023-12-29T06:52:09;100106.28;;;9.77;63.35
10342;BME280;5216;54.602;18.356;2023-12-29T06:54:36;100115.81;;;9.79;63.44
10342;BME280;5216;54.602;18.356;2023-12-29T06:57:06;100097.81;;;9.81;63.13
10342;BME280;5216;54.602;18.356;2023-12-29T06:59:32;100113.84;;;9.81;63.21
10342;BME280;5216;54.602;18.356;2023-12-29T07:01:59;100107.41;;;9.84;63.07
10342;BME280;5216;54.602;18.356;2023-12-29T07:04:26;100100.50;;;9.81;63.34
10342;BME280;5216;54.602;18.356;2023-12-29T07:06:53;100108.50;;;9.81;63.15
10342;BME280;5216;54.602;18.356;2023-12-29T07:09:20;100120.88;;;9.82;63.32
10342;BME280;5216;54.602;18.356;2023-12-29T07:11:49;100091.38;;;9.84;63.21
10342;BME280;5216;54.602;18.356;2023-12-29T07:14:16;100113.56;;;9.84;63.32
10342;BME280;5216;54.602;18.356;2023-12-29T07:16:44;100112.72;;;9.84;63.66
10342;BME280;5216;54.602;18.356;2023-12-29T07:19:10;100098.53;;;9.83;63.60
10342;BME280;5216;54.602;18.356;2023-12-29T07:21:38;100104.88;;;9.82;64.13
10342;BME280;5216;54.602;18.356;2023-12-29T07:24:05;100085.19;;;9.83;64.07
10342;BME280;5216;54.602;18.356;2023-12-29T07:26:34;100101.19;;;9.83;64.16
10342;BME280;5216;54.602;18.356;2023-12-29T07:29:04;100092.50;;;9.81;64.16
10342;BME280;5216;54.602;18.356;2023-12-29T07:31:32;100080.16;;;9.80;64.09
10342;BME280;5216;54.602;18.356;2023-12-29T07:33:59;100090.81;;;9.80;64.30
10342;BME280;5216;54.602;18.356;2023-12-29T07:36:27;100088.16;;;9.80;64.12
10342;BME280;5216;54.602;18.356;2023-12-29T07:38:53;100098.69;;;9.82;64.10
10342;BME280;5216;54.602;18.356;2023-12-29T07:41:20;100090.53;;;9.83;64.19
10342;BME280;5216;54.602;18.356;2023-12-29T07:43:47;100108.22;;;9.84;64.29
10342;BME280;5216;54.602;18.356;2023-12-29T07:46:23;100085.19;;;9.83;64.50
10342;BME280;5216;54.602;18.356;2023-12-29T07:48:50;100078.88;;;9.84;64.40
10342;BME280;5216;54.602;18.356;2023-12-29T07:51:17;100063.84;;;9.83;64.05
10342;BME280;5216;54.602;18.356;2023-12-29T07:53:43;100079.44;;;9.88;63.72
10342;BME280;5216;54.602;18.356;2023-12-29T07:56:10;100059.06;;;9.87;63.37
10342;BME280;5216;54.602;18.356;2023-12-29T07:58:37;100063.13;;;9.91;63.73
10342;BME280;5216;54.602;18.356;2023-12-29T08:01:06;100070.28;;;9.90;63.43
10342;BME280;5216;54.602;18.356;2023-12-29T08:03:33;100075.63;;;9.90;63.43
10342;BME280;5216;54.602;18.356;2023-12-29T08:06:00;100078.44;;;9.89;63.37
10342;BME280;5216;54.602;18.356;2023-12-29T08:08:26;100049.78;;;9.91;63.41
10342;BME280;5216;54.602;18.356;2023-12-29T08:10:53;100105.97;;;9.89;63.56
10342;BME280;5216;54.602;18.356;2023-12-29T08:13:20;100056.25;;;9.88;63.46
10342;BME280;5216;54.602;18.356;2023-12-29T08:15:46;100068.34;;;9.92;63.44
10342;BME280;5216;54.602;18.356;2023-12-29T08:18:14;100092.22;;;9.93;63.41
10342;BME280;5216;54.602;18.356;2023-12-29T08:20:41;100061.03;;;9.94;63.44
10342;BME280;5216;54.602;18.356;2023-12-29T08:23:08;100087.72;;;9.94;63.16
10342;BME280;5216;54.602;18.356;2023-12-29T08:25:35;100071.72;;;9.94;63.39
10342;BME280;5216;54.602;18.356;2023-12-29T08:28:03;100072.81;;;10.01;62.92
10342;BME280;5216;54.602;18.356;2023-12-29T08:30:30;100077.84;;;10.04;63.48
10342;BME280;5216;54.602;18.356;2023-12-29T08:32:57;100054.53;;;10.06;62.83
10342;BME280;5216;54.602;18.356;2023-12-29T08:35:24;100070.53;;;10.06;63.17
10342;BME280;5216;54.602;18.356;2023-12-29T08:37:50;100070.53;;;10.06;62.47
10342;BME280;5216;54.602;18.356;2023-12-29T08:40:17;100063.53;;;10.05;63.00
10342;BME280;5216;54.602;18.356;2023-12-29T08:42:44;100091.91;;;10.06;62.96
10342;BME280;5216;54.602;18.356;2023-12-29T08:45:11;100054.53;;;10.06;62.86
10342;BME280;5216;54.602;18.356;2023-12-29T08:47:37;100089.91;;;10.08;62.95
10342;BME280;5216;54.602;18.356;2023-12-29T08:50:04;100055.34;;;10.06;62.89
10342;BME280;5216;54.602;18.356;2023-12-29T08:52:31;100038.50;;;10.06;62.74
10342;BME280;5216;54.602;18.356;2023-12-29T08:54:59;100049.19;;;10.06;62.63
10342;BME280;5216;54.602;18.356;2023-12-29T08:57:32;100058.19;;;10.05;62.71
10342;BME280;5216;54.602;18.356;2023-12-29T08:59:58;100053.13;;;10.02;62.74
10342;BME280;5216;54.602;18.356;2023-12-29T09:02:25;100059.84;;;10.06;63.36
10342;BME280;5216;54.602;18.356;2023-12-29T09:04:52;100059.84;;;10.06;62.73
10342;BME280;5216;54.602;18.356;2023-12-29T09:07:19;100074.72;;;10.08;62.77
10342;BME280;5216;54.602;18.356;2023-12-29T09:09:45;100064.22;;;10.07;63.05
10342;BME280;5216;54.602;18.356;2023-12-29T09:12:12;100056.03;;;10.08;62.99
10342;BME280;5216;54.602;18.356;2023-12-29T09:14:39;100082.75;;;10.08;63.42
10342;BME280;5216;54.602;18.356;2023-12-29T09:17:05;100102.88;;;10.03;63.03
10342;BME280;5216;54.602;18.356;2023-12-29T09:19:32;100095.25;;;10.08;63.22
10342;BME280;5216;54.602;18.356;2023-12-29T09:22:06;100076.56;;;10.08;63.74
10342;BME280;5216;54.602;18.356;2023-12-29T09:24:33;100100.59;;;10.08;64.02
10342;BME280;5216;54.602;18.356;2023-12-29T09:26:59;100082.91;;;10.07;64.35
10342;BME280;5216;54.602;18.356;2023-12-29T09:29:26;100095.56;;;10.05;64.71
10342;BME280;5216;54.602;18.356;2023-12-29T09:31:53;100090.22;;;10.05;65.08
10342;BME280;5216;54.602;18.356;2023-12-29T09:34:20;100110.19;;;10.01;65.40
10342;BME280;5216;54.602;18.356;2023-12-29T09:36:46;100114.13;;;9.97;65.41
10342;BME280;5216;54.602;18.356;2023-12-29T09:39:13;100124.97;;;9.95;66.19
10342;BME280;5216;54.602;18.356;2023-12-29T09:41:43;100129.00;;;9.90;66.61
10342;BME280;5216;54.602;18.356;2023-12-29T09:44:13;100148.41;;;9.83;66.62
10342;BME280;5216;54.602;18.356;2023-12-29T09:46:42;100130.16;;;9.78;66.94
10342;BME280;5216;54.602;18.356;2023-12-29T09:49:09;100158.94;;;9.75;67.18
10342;BME280;5216;54.602;18.356;2023-12-29T09:51:38;100190.00;;;9.66;67.56
10342;BME280;5216;54.602;18.356;2023-12-29T09:54:08;100192.66;;;9.57;68.55
10342;BME280;5216;54.602;18.356;2023-12-29T09:56:38;100181.28;;;9.46;68.68
10342;BME280;5216;54.602;18.356;2023-12-29T09:59:06;100149.00;;;9.30;69.20
10342;BME280;5216;54.602;18.356;2023-12-29T10:01:37;100104.09;;;9.25;68.97
10342;BME280;5216;54.602;18.356;2023-12-29T10:04:05;100058.34;;;9.20;68.68
10342;BME280;5216;54.602;18.356;2023-12-29T10:06:36;100064.50;;;9.21;68.91
10342;BME280;5216;54.602;18.356;2023-12-29T10:09:03;100047.41;;;9.23;68.86
10342;BME280;5216;54.602;18.356;2023-12-29T10:11:34;100055.25;;;9.25;68.77
10342;BME280;5216;54.602;18.356;2023-12-29T10:14:09;100045.16;;;9.28;68.76
10342;BME280;5216;54.602;18.356;2023-12-29T10:16:45;100041.50;;;9.29;68.75
10342;BME280;5216;54.602;18.356;2023-12-29T10:19:41;100052.44;;;9.36;68.68
10342;BME280;5216;54.602;18.356;2023-12-29T10:22:21;100060.88;;;9.41;68.60
10342;BME280;5216;54.602;18.356;2023-12-29T10:24:50;100055.22;;;9.44;68.60
10342;BME280;5216;54.602;18.356;2023-12-29T10:27:17;100056.50;;;9.49;68.73
10342;BME280;5216;54.602;18.356;2023-12-29T10:29:44;100053.38;;;9.53;68.52
10342;BME280;5216;54.602;18.356;2023-12-29T10:32:11;100070.78;;;9.57;68.76
10342;BME280;5216;54.602;18.356;2023-12-29T10:34:38;100052.94;;;9.58;68.27
10342;BME280;5216;54.602;18.356;2023-12-29T10:37:05;100050.56;;;9.64;68.26
10342;BME280;5216;54.602;18.356;2023-12-29T10:39:55;100056.47;;;9.68;67.81
10342;BME280;5216;54.602;18.356;2023-12-29T10:42:22;100049.28;;;9.68;68.29
10342;BME280;5216;54.602;18.356;2023-12-29T10:45:04;100046.72;;;9.76;67.57
10342;BME280;5216;54.602;18.356;2023-12-29T10:47:31;100028.88;;;9.77;67.95
10342;BME280;5216;54.602;18.356;2023-12-29T10:49:59;100054.16;;;9.82;67.61
10342;BME280;5216;54.602;18.356;2023-12-29T10:52:27;100034.19;;;9.86;67.53
10342;BME280;5216;54.602;18.356;2023-12-29T10:55:07;100045.44;;;9.90;67.63
10342;BME280;5216;54.602;18.356;2023-12-29T10:57:36;100045.00;;;9.94;67.32
10342;BME280;5216;54.602;18.356;2023-12-29T11:00:03;100044.75;;;9.97;67.29
10342;BME280;5216;54.602;18.356;2023-12-29T11:02:32;100049.50;;;10.03;66.97
10342;BME280;5216;54.602;18.356;2023-12-29T11:05:09;100058.19;;;10.05;67.16
10342;BME280;5216;54.602;18.356;2023-12-29T11:07:40;100069.56;;;10.07;67.00
10342;BME280;5216;54.602;18.356;2023-12-29T11:10:26;100056.91;;;10.09;66.44
10342;BME280;5216;54.602;18.356;2023-12-29T11:12:54;100058.28;;;10.13;66.95
10342;BME280;5216;54.602;18.356;2023-12-29T11:15:22;100049.13;;;10.15;66.22
10342;BME280;5216;54.602;18.356;2023-12-29T11:17:51;100051.34;;;10.20;65.80
10342;BME280;5216;54.602;18.356;2023-12-29T11:20:21;100083.13;;;10.23;65.77
10342;BME280;5216;54.602;18.356;2023-12-29T11:22:48;100068.75;;;10.24;65.62
10342;BME280;5216;54.602;18.356;2023-12-29T11:25:15;100053.44;;;10.26;65.70
10342;BME280;5216;54.602;18.356;2023-12-29T11:27:42;100051.47;;;10.27;65.38
10342;BME280;5216;54.602;18.356;2023-12-29T11:30:14;100052.31;;;10.28;65.16
10342;BME280;5216;54.602;18.356;2023-12-29T11:32:42;100063.00;;;10.28;64.06
10342;BME280;5216;54.602;18.356;2023-12-29T11:35:16;100062.56;;;10.32;64.25
10342;BME280;5216;54.602;18.356;2023-12-29T11:41:01;100061.97;;;10.38;63.65
10342;BME280;5216;54.602;18.356;2023-12-29T11:43:30;100053.94;;;10.38;63.49
10342;BME280;5216;54.602;18.356;2023-12-29T11:45:57;100054.34;;;10.43;63.39
10342;BME280;5216;54.602;18.356;2023-12-29T11:48:55;100066.69;;;10.44;62.82
10342;BME280;5216;54.602;18.356;2023-12-29T11:54:01;100056.00;;;10.44;62.80
10342;BME280;5216;54.602;18.356;2023-12-29T11:56:36;100083.56;;;10.45;62.59
10342;BME280;5216;54.602;18.356;2023-12-29T12:01:58;100055.03;;;10.45;62.12
10342;BME280;5216;54.602;18.356;2023-12-29T12:07:04;100070.06;;;10.46;62.14
10342;BME280;5216;54.602;18.356;2023-12-29T12:09:32;100063.88;;;10.46;62.60
10342;BME280;5216;54.602;18.356;2023-12-29T12:12:02;100087.19;;;10.53;62.09
10342;BME280;5216;54.602;18.356;2023-12-29T12:14:52;100088.16;;;10.52;61.97
10342;BME280;5216;54.602;18.356;2023-12-29T12:17:32;100076.50;;;10.53;62.23
10342;BME280;5216;54.602;18.356;2023-12-29T12:20:08;100069.47;;;10.52;62.02
10342;BME280;5216;54.602;18.356;2023-12-29T12:22:39;100070.28;;;10.53;62.08
10342;BME280;5216;54.602;18.356;2023-12-29T12:25:07;100063.97;;;10.54;61.68
10342;BME280;5216;54.602;18.356;2023-12-29T12:27:37;100077.03;;;10.57;61.78
10342;BME280;5216;54.602;18.356;2023-12-29T12:30:04;100072.22;;;10.60;61.31
10342;BME280;5216;54.602;18.356;2023-12-29T12:32:32;100086.28;;;10.62;61.34
10342;BME280;5216;54.602;18.356;2023-12-29T12:34:58;100080.94;;;10.62;61.37
10342;BME280;5216;54.602;18.356;2023-12-29T12:37:27;100091.34;;;10.65;61.12
10342;BME280;5216;54.602;18.356;2023-12-29T12:39:55;100093.88;;;10.66;61.26
10342;BME280;5216;54.602;18.356;2023-12-29T12:42:23;100093.00;;;10.66;61.54
10342;BME280;5216;54.602;18.356;2023-12-29T12:44:55;100102.72;;;10.67;61.07
10342;BME280;5216;54.602;18.356;2023-12-29T12:47:27;100084.00;;;10.67;61.08
10342;BME280;5216;54.602;18.356;2023-12-29T12:49:54;100075.31;;;10.65;61.15
10342;BME280;5216;54.602;18.356;2023-12-29T12:52:21;100097.38;;;10.67;61.39
10342;BME280;5216;54.602;18.356;2023-12-29T12:54:48;100086.84;;;10.65;61.24
10342;BME280;5216;54.602;18.356;2023-12-29T12:57:19;100089.03;;;10.70;60.96
10342;BME280;5216;54.602;18.356;2023-12-29T12:59:48;100082.19;;;10.67;60.68
10342;BME280;5216;54.602;18.356;2023-12-29T13:02:17;100091.03;;;10.68;61.15
10342;BME280;5216;54.602;18.356;2023-12-29T13:04:44;100106.78;;;10.71;60.74
10342;BME280;5216;54.602;18.356;2023-12-29T13:07:15;100080.34;;;10.68;60.66
10342;BME280;5216;54.602;18.356;2023-12-29T13:09:44;100092.03;;;10.67;60.29
10342;BME280;5216;54.602;18.356;2023-12-29T13:12:12;100108.75;;;10.69;61.05
10342;BME280;5216;54.602;18.356;2023-12-29T13:14:39;100115.78;;;10.70;60.84